sensor_id;sensor_type;location;lat;lon;timestamp;P1;durP1;ratioP1;P2;durP2;ratioP2
2452;SDS011;1238;47.994;7.854;2022-08-19T00:02:00;6.60;;;4.80;;
2452;SDS011;1238;47.994;7.854;2022-08-19T00:04:35;7.03;;;5.38;;
2452;SDS011;1238;47.994;7.854;2022-08-19T00:07:08;6.75;;;5.15;;
2452;SDS011;1238;47.994;7.854;2022-08-19T00:12:13;5.60;;;4.35;;
2452;SDS011;1238;47.994;7.854;2022-08-19T00:14:45;6.53;;;4.40;;
2452;SDS011;1238;47.994;7.854;2022-08-19T00:17:17;7.53;;;5.97;;
2452;SDS011;1238;47.994;7.854;2022-08-19T00:22:22;14.10;;;5.03;;
2452;SDS011;1238;47.994;7.854;2022-08-19T00:24:54;12.85;;;4.88;;
2452;SDS011;1238;47.994;7.854;2022-08-19T00:27:27;8.18;;;5.25;;
2452;SDS011;1238;47.994;7.854;2022-08-19T00:29:59;6.82;;;4.90;;
2452;SDS011;1238;47.994;7.854;2022-08-19T00:32:33;5.60;;;4.50;;
2452;SDS011;1238;47.994;7.854;2022-08-19T00:35:06;9.35;;;5.38;;
2452;SDS011;1238;47.994;7.854;2022-08-19T00:37:38;5.82;;;4.65;;
2452;SDS011;1238;47.994;7.854;2022-08-19T00:40:15;5.80;;;4.88;;
2452;SDS011;1238;47.994;7.854;2022-08-19T00:42:50;7.45;;;5.20;;
2452;SDS011;1238;47.994;7.854;2022-08-19T00:45:26;6.25;;;4.80;;
2452;SDS011;1238;47.994;7.854;2022-08-19T00:48:03;6.60;;;5.13;;
2452;SDS011;1238;47.994;7.854;2022-08-19T00:50:46;6.88;;;5.00;;
2452;SDS011;1238;47.994;7.854;2022-08-19T00:53:23;7.15;;;4.88;;
2452;SDS011;1238;47.994;7.854;2022-08-19T00:55:58;6.70;;;5.10;;
2452;SDS011;1238;47.994;7.854;2022-08-19T00:58:33;6.43;;;5.10;;
2452;SDS011;1238;47.994;7.854;2022-08-19T01:01:06;6.65;;;4.97;;
2452;SDS011;1238;47.994;7.854;2022-08-19T01:03:42;8.77;;;5.45;;
2452;SDS011;1238;47.994;7.854;2022-08-19T01:06:29;7.28;;;4.40;;
2452;SDS011;1238;47.994;7.854;2022-08-19T01:09:04;7.28;;;4.70;;
2452;SDS011;1238;47.994;7.854;2022-08-19T01:11:38;7.20;;;5.25;;
2452;SDS011;1238;47.994;7.854;2022-08-19T01:14:15;7.57;;;5.82;;
2452;SDS011;1238;47.994;7.854;2022-08-19T01:16:48;8.35;;;5.70;;
2452;SDS011;1238;47.994;7.854;2022-08-19T01:19:27;9.55;;;5.10;;
2452;SDS011;1238;47.994;7.854;2022-08-19T01:22:16;7.40;;;5.75;;
2452;SDS011;1238;47.994;7.854;2022-08-19T01:25:04;7.95;;;5.70;;
2452;SDS011;1238;47.994;7.854;2022-08-19T01:27:46;7.45;;;4.60;;
2452;SDS011;1238;47.994;7.854;2022-08-19T01:30:28;7.97;;;6.00;;
2452;SDS011;1238;47.994;7.854;2022-08-19T01:33:02;8.50;;;5.25;;
2452;SDS011;1238;47.994;7.854;2022-08-19T01:35:37;7.85;;;5.65;;
2452;SDS011;1238;47.994;7.854;2022-08-19T01:40:50;9.45;;;6.07;;
2452;SDS011;1238;47.994;7.854;2022-08-19T01:43:23;6.68;;;5.10;;
2452;SDS011;1238;47.994;7.854;2022-08-19T01:45:55;9.55;;;5.30;;
2452;SDS011;1238;47.994;7.854;2022-08-19T01:48:27;8.75;;;5.70;;
2452;SDS011;1238;47.994;7.854;2022-08-19T01:51:05;7.88;;;5.22;;
2452;SDS011;1238;47.994;7.854;2022-08-19T01:53:40;7.78;;;5.30;;
2452;SDS011;1238;47.994;7.854;2022-08-19T01:56:12;6.18;;;4.72;;
2452;SDS011;1238;47.994;7.854;2022-08-19T02:01:22;7.97;;;6.15;;
2452;SDS011;1238;47.994;7.854;2022-08-19T02:04:01;6.53;;;4.88;;
2452;SDS011;1238;47.994;7.854;2022-08-19T02:06:33;7.03;;;5.38;;
2452;SDS011;1238;47.994;7.854;2022-08-19T02:09:06;8.20;;;5.90;;
2452;SDS011;1238;47.994;7.854;2022-08-19T02:11:39;7.82;;;5.18;;
2452;SDS011;1238;47.994;7.854;2022-08-19T02:14:13;7.32;;;5.60;;
2452;SDS011;1238;47.994;7.854;2022-08-19T02:16:45;5.53;;;4.55;;
2452;SDS011;1238;47.994;7.854;2022-08-19T02:19:17;8.93;;;5.88;;
2452;SDS011;1238;47.994;7.854;2022-08-19T02:21:50;8.30;;;6.15;;
2452;SDS011;1238;47.994;7.854;2022-08-19T02:24:23;10.07;;;6.00;;
2452;SDS011;1238;47.994;7.854;2022-08-19T02:26:56;9.45;;;5.63;;
2452;SDS011;1238;47.994;7.854;2022-08-19T02:29:28;9.95;;;5.95;;
2452;SDS011;1238;47.994;7.854;2022-08-19T02:32:01;7.72;;;5.90;;
2452;SDS011;1238;47.994;7.854;2022-08-19T02:37:05;7.65;;;5.35;;
2452;SDS011;1238;47.994;7.854;2022-08-19T02:42:30;9.45;;;6.35;;
2452;SDS011;1238;47.994;7.854;2022-08-19T02:45:03;7.07;;;5.22;;
2452;SDS011;1238;47.994;7.854;2022-08-19T02:47:37;7.90;;;5.80;;
2452;SDS011;1238;47.994;7.854;2022-08-19T02:52:41;8.05;;;5.90;;
2452;SDS011;1238;47.994;7.854;2022-08-19T02:55:13;10.63;;;6.40;;
2452;SDS011;1238;47.994;7.854;2022-08-19T02:57:46;9.52;;;6.05;;
2452;SDS011;1238;47.994;7.854;2022-08-19T03:00:19;8.45;;;6.47;;
2452;SDS011;1238;47.994;7.854;2022-08-19T03:08:17;7.22;;;5.95;;
2452;SDS011;1238;47.994;7.854;2022-08-19T03:10:52;9.77;;;6.45;;
2452;SDS011;1238;47.994;7.854;2022-08-19T03:13:24;8.77;;;6.35;;
2452;SDS011;1238;47.994;7.854;2022-08-19T03:18:29;10.25;;;6.55;;
2452;SDS011;1238;47.994;7.854;2022-08-19T03:23:34;10.38;;;6.75;;
2452;SDS011;1238;47.994;7.854;2022-08-19T03:26:07;8.98;;;6.63;;
2452;SDS011;1238;47.994;7.854;2022-08-19T03:28:47;9.73;;;6.63;;
2452;SDS011;1238;47.994;7.854;2022-08-19T03:31:29;9.57;;;6.50;;
2452;SDS011;1238;47.994;7.854;2022-08-19T03:34:25;11.80;;;7.45;;
2452;SDS011;1238;47.994;7.854;2022-08-19T03:36:59;10.45;;;6.85;;
2452;SDS011;1238;47.994;7.854;2022-08-19T03:39:39;6.95;;;5.25;;
2452;SDS011;1238;47.994;7.854;2022-08-19T03:42:12;10.60;;;6.75;;
2452;SDS011;1238;47.994;7.854;2022-08-19T03:45:04;7.78;;;5.95;;
2452;SDS011;1238;47.994;7.854;2022-08-19T03:47:38;10.90;;;6.88;;
2452;SDS011;1238;47.994;7.854;2022-08-19T03:50:11;9.93;;;7.32;;
2452;SDS011;1238;47.994;7.854;2022-08-19T03:55:19;13.55;;;7.20;;
2452;SDS011;1238;47.994;7.854;2022-08-19T04:00:29;11.02;;;6.78;;
2452;SDS011;1238;47.994;7.854;2022-08-19T04:05:34;10.65;;;7.72;;
2452;SDS011;1238;47.994;7.854;2022-08-19T04:10:44;8.13;;;5.82;;
2452;SDS011;1238;47.994;7.854;2022-08-19T04:15:48;9.20;;;7.00;;
2452;SDS011;1238;47.994;7.854;2022-08-19T04:20:53;11.80;;;7.40;;
2452;SDS011;1238;47.994;7.854;2022-08-19T04:23:25;14.93;;;6.60;;
2452;SDS011;1238;47.994;7.854;2022-08-19T04:25:59;9.82;;;7.50;;
2452;SDS011;1238;47.994;7.854;2022-08-19T04:28:35;11.38;;;7.55;;
2452;SDS011;1238;47.994;7.854;2022-08-19T04:31:12;10.02;;;7.78;;
2452;SDS011;1238;47.994;7.854;2022-08-19T04:33:46;10.27;;;7.40;;
2452;SDS011;1238;47.994;7.854;2022-08-19T04:39:00;11.68;;;8.27;;
2452;SDS011;1238;47.994;7.854;2022-08-19T04:41:36;11.35;;;8.63;;
2452;SDS011;1238;47.994;7.854;2022-08-19T04:44:26;12.32;;;7.72;;
2452;SDS011;1238;47.994;7.854;2022-08-19T04:47:03;12.50;;;8.55;;
2452;SDS011;1238;47.994;7.854;2022-08-19T04:49:41;11.40;;;8.48;;
2452;SDS011;1238;47.994;7.854;2022-08-19T04:52:13;12.63;;;8.35;;
2452;SDS011;1238;47.994;7.854;2022-08-19T04:54:46;9.20;;;6.90;;
2452;SDS011;1238;47.994;7.854;2022-08-19T04:57:18;9.65;;;7.80;;
2452;SDS011;1238;47.994;7.854;2022-08-19T04:59:53;13.75;;;8.35;;
2452;SDS011;1238;47.994;7.854;2022-08-19T05:02:26;12.23;;;8.95;;
2452;SDS011;1238;47.994;7.854;2022-08-19T05:04:59;10.95;;;6.80;;
2452;SDS011;1238;47.994;7.854;2022-08-19T05:07:33;8.80;;;6.97;;
2452;SDS011;1238;47.994;7.854;2022-08-19T05:10:05;11.35;;;7.82;;
2452;SDS011;1238;47.994;7.854;2022-08-19T05:12:39;8.18;;;6.47;;
2452;SDS011;1238;47.994;7.854;2022-08-19T05:15:11;11.43;;;8.75;;
2452;SDS011;1238;47.994;7.854;2022-08-19T05:17:44;12.05;;;8.93;;
2452;SDS011;1238;47.994;7.854;2022-08-19T05:20:39;11.77;;;8.88;;
2452;SDS011;1238;47.994;7.854;2022-08-19T05:23:30;11.48;;;8.73;;
2452;SDS011;1238;47.994;7.854;2022-08-19T05:26:02;15.00;;;9.10;;
2452;SDS011;1238;47.994;7.854;2022-08-19T05:28:35;11.23;;;8.57;;
2452;SDS011;1238;47.994;7.854;2022-08-19T05:33:39;12.55;;;8.60;;
2452;SDS011;1238;47.994;7.854;2022-08-19T05:36:12;11.75;;;8.93;;
2452;SDS011;1238;47.994;7.854;2022-08-19T05:38:45;12.23;;;9.05;;
2452;SDS011;1238;47.994;7.854;2022-08-19T05:41:19;11.38;;;8.88;;
2452;SDS011;1238;47.994;7.854;2022-08-19T05:43:52;12.68;;;9.13;;
2452;SDS011;1238;47.994;7.854;2022-08-19T05:46:24;12.20;;;9.40;;
2452;SDS011;1238;47.994;7.854;2022-08-19T05:48:58;13.48;;;9.27;;
2452;SDS011;1238;47.994;7.854;2022-08-19T05:51:30;14.35;;;9.73;;
2452;SDS011;1238;47.994;7.854;2022-08-19T05:54:04;15.32;;;10.43;;
2452;SDS011;1238;47.994;7.854;2022-08-19T05:56:37;11.00;;;8.48;;
2452;SDS011;1238;47.994;7.854;2022-08-19T05:59:10;12.75;;;8.73;;
2452;SDS011;1238;47.994;7.854;2022-08-19T06:01:43;14.48;;;8.73;;
2452;SDS011;1238;47.994;7.854;2022-08-19T06:04:18;11.02;;;8.07;;
2452;SDS011;1238;47.994;7.854;2022-08-19T06:06:54;8.38;;;6.00;;
2452;SDS011;1238;47.994;7.854;2022-08-19T06:09:26;9.50;;;7.25;;
2452;SDS011;1238;47.994;7.854;2022-08-19T06:14:32;8.02;;;6.82;;
2452;SDS011;1238;47.994;7.854;2022-08-19T06:17:12;8.55;;;6.60;;
2452;SDS011;1238;47.994;7.854;2022-08-19T06:19:44;11.68;;;7.55;;
2452;SDS011;1238;47.994;7.854;2022-08-19T06:22:17;12.30;;;7.82;;
2452;SDS011;1238;47.994;7.854;2022-08-19T06:27:24;12.45;;;8.25;;
2452;SDS011;1238;47.994;7.854;2022-08-19T06:35:18;11.50;;;8.02;;
2452;SDS011;1238;47.994;7.854;2022-08-19T06:37:51;12.48;;;8.90;;
2452;SDS011;1238;47.994;7.854;2022-08-19T06:40:24;10.77;;;8.40;;
2452;SDS011;1238;47.994;7.854;2022-08-19T06:42:59;10.77;;;8.20;;
2452;SDS011;1238;47.994;7.854;2022-08-19T06:45:37;11.07;;;8.32;;
2452;SDS011;1238;47.994;7.854;2022-08-19T06:48:10;7.78;;;6.40;;
2452;SDS011;1238;47.994;7.854;2022-08-19T06:50:45;12.18;;;8.45;;
2452;SDS011;1238;47.994;7.854;2022-08-19T06:53:20;9.05;;;6.90;;
2452;SDS011;1238;47.994;7.854;2022-08-19T06:55:53;11.90;;;8.70;;
2452;SDS011;1238;47.994;7.854;2022-08-19T06:58:31;9.18;;;6.53;;
2452;SDS011;1238;47.994;7.854;2022-08-19T07:01:04;10.38;;;7.60;;
2452;SDS011;1238;47.994;7.854;2022-08-19T07:03:39;9.60;;;7.53;;
2452;SDS011;1238;47.994;7.854;2022-08-19T07:06:13;11.88;;;8.10;;
2452;SDS011;1238;47.994;7.854;2022-08-19T07:09:09;12.13;;;8.55;;
2452;SDS011;1238;47.994;7.854;2022-08-19T07:11:49;9.52;;;6.80;;
2452;SDS011;1238;47.994;7.854;2022-08-19T07:14:23;9.65;;;7.20;;
2452;SDS011;1238;47.994;7.854;2022-08-19T07:16:57;10.32;;;7.18;;
2452;SDS011;1238;47.994;7.854;2022-08-19T07:22:04;12.73;;;8.32;;
2452;SDS011;1238;47.994;7.854;2022-08-19T07:24:43;14.02;;;8.77;;
2452;SDS011;1238;47.994;7.854;2022-08-19T07:27:21;11.02;;;8.63;;
2452;SDS011;1238;47.994;7.854;2022-08-19T07:29:56;12.20;;;8.77;;
2452;SDS011;1238;47.994;7.854;2022-08-19T07:32:30;11.18;;;7.90;;
2452;SDS011;1238;47.994;7.854;2022-08-19T07:35:03;9.45;;;7.15;;
2452;SDS011;1238;47.994;7.854;2022-08-19T07:37:38;13.32;;;9.13;;
2452;SDS011;1238;47.994;7.854;2022-08-19T07:40:15;14.82;;;9.65;;
2452;SDS011;1238;47.994;7.854;2022-08-19T07:42:48;11.60;;;8.90;;
2452;SDS011;1238;47.994;7.854;2022-08-19T07:47:52;11.18;;;8.02;;
2452;SDS011;1238;47.994;7.854;2022-08-19T07:52:56;12.85;;;9.13;;
2452;SDS011;1238;47.994;7.854;2022-08-19T07:55:29;17.50;;;10.15;;
2452;SDS011;1238;47.994;7.854;2022-08-19T07:58:14;13.20;;;10.35;;
2452;SDS011;1238;47.994;7.854;2022-08-19T08:00:51;15.30;;;11.02;;
2452;SDS011;1238;47.994;7.854;2022-08-19T08:03:23;16.83;;;10.95;;
2452;SDS011;1238;47.994;7.854;2022-08-19T08:06:16;14.50;;;11.13;;
2452;SDS011;1238;47.994;7.854;2022-08-19T08:09:08;17.27;;;11.98;;
2452;SDS011;1238;47.994;7.854;2022-08-19T08:11:48;15.90;;;11.30;;
2452;SDS011;1238;47.994;7.854;2022-08-19T08:14:27;16.15;;;10.90;;
2452;SDS011;1238;47.994;7.854;2022-08-19T08:17:15;17.30;;;11.15;;
2452;SDS011;1238;47.994;7.854;2022-08-19T08:20:08;16.15;;;11.52;;
2452;SDS011;1238;47.994;7.854;2022-08-19T08:22:45;16.90;;;11.73;;
2452;SDS011;1238;47.994;7.854;2022-08-19T08:25:36;18.95;;;12.52;;
2452;SDS011;1238;47.994;7.854;2022-08-19T08:28:09;16.83;;;11.45;;
2452;SDS011;1238;47.994;7.854;2022-08-19T08:30:48;15.27;;;11.05;;
2452;SDS011;1238;47.994;7.854;2022-08-19T08:33:23;17.25;;;12.18;;
2452;SDS011;1238;47.994;7.854;2022-08-19T08:36:05;17.92;;;12.90;;
2452;SDS011;1238;47.994;7.854;2022-08-19T08:38:42;18.83;;;14.27;;
2452;SDS011;1238;47.994;7.854;2022-08-19T08:43:57;19.17;;;13.48;;
2452;SDS011;1238;47.994;7.854;2022-08-19T08:49:29;20.58;;;14.57;;
2452;SDS011;1238;47.994;7.854;2022-08-19T08:52:15;19.02;;;13.60;;
2452;SDS011;1238;47.994;7.854;2022-08-19T08:55:05;20.40;;;13.73;;
2452;SDS011;1238;47.994;7.854;2022-08-19T09:00:22;20.98;;;13.32;;
2452;SDS011;1238;47.994;7.854;2022-08-19T09:02:58;19.83;;;14.15;;
2452;SDS011;1238;47.994;7.854;2022-08-19T09:05:45;19.17;;;13.57;;
2452;SDS011;1238;47.994;7.854;2022-08-19T09:17:23;21.95;;;15.07;;
2452;SDS011;1238;47.994;7.854;2022-08-19T09:22:40;17.50;;;12.07;;
2452;SDS011;1238;47.994;7.854;2022-08-19T09:25:20;16.98;;;10.70;;
2452;SDS011;1238;47.994;7.854;2022-08-19T09:27:59;22.23;;;13.65;;
2452;SDS011;1238;47.994;7.854;2022-08-19T09:30:40;18.30;;;13.25;;
2452;SDS011;1238;47.994;7.854;2022-08-19T09:33:13;21.42;;;13.75;;
2452;SDS011;1238;47.994;7.854;2022-08-19T09:35:45;18.13;;;13.45;;
2452;SDS011;1238;47.994;7.854;2022-08-19T09:38:24;20.70;;;13.70;;
2452;SDS011;1238;47.994;7.854;2022-08-19T09:41:01;21.00;;;12.45;;
2452;SDS011;1238;47.994;7.854;2022-08-19T09:43:37;19.00;;;14.40;;
2452;SDS011;1238;47.994;7.854;2022-08-19T09:46:19;20.50;;;14.93;;
2452;SDS011;1238;47.994;7.854;2022-08-19T09:48:54;23.50;;;15.07;;
2452;SDS011;1238;47.994;7.854;2022-08-19T09:51:37;25.23;;;14.82;;
2452;SDS011;1238;47.994;7.854;2022-08-19T09:54:11;16.60;;;12.02;;
2452;SDS011;1238;47.994;7.854;2022-08-19T09:59:16;14.50;;;10.88;;
2452;SDS011;1238;47.994;7.854;2022-08-19T10:01:48;19.75;;;13.93;;
2452;SDS011;1238;47.994;7.854;2022-08-19T10:04:21;18.80;;;13.30;;
2452;SDS011;1238;47.994;7.854;2022-08-19T10:06:56;20.80;;;13.98;;
2452;SDS011;1238;47.994;7.854;2022-08-19T10:12:05;20.00;;;14.75;;
2452;SDS011;1238;47.994;7.854;2022-08-19T10:14:41;20.48;;;14.35;;
2452;SDS011;1238;47.994;7.854;2022-08-19T10:17:13;20.02;;;14.82;;
2452;SDS011;1238;47.994;7.854;2022-08-19T10:19:52;19.77;;;15.25;;
2452;SDS011;1238;47.994;7.854;2022-08-19T10:22:26;20.55;;;14.02;;
2452;SDS011;1238;47.994;7.854;2022-08-19T10:25:01;19.88;;;14.15;;
2452;SDS011;1238;47.994;7.854;2022-08-19T10:27:34;18.75;;;14.30;;
2452;SDS011;1238;47.994;7.854;2022-08-19T10:30:06;20.45;;;13.63;;
2452;SDS011;1238;47.994;7.854;2022-08-19T10:32:44;25.10;;;14.95;;
2452;SDS011;1238;47.994;7.854;2022-08-19T10:35:17;20.55;;;14.40;;
2452;SDS011;1238;47.994;7.854;2022-08-19T10:37:52;24.15;;;14.35;;
2452;SDS011;1238;47.994;7.854;2022-08-19T10:40:28;20.38;;;14.95;;
2452;SDS011;1238;47.994;7.854;2022-08-19T10:43:00;23.25;;;15.02;;
2452;SDS011;1238;47.994;7.854;2022-08-19T10:48:04;20.13;;;14.60;;
2452;SDS011;1238;47.994;7.854;2022-08-19T10:50:42;21.92;;;15.65;;
2452;SDS011;1238;47.994;7.854;2022-08-19T10:53:35;22.25;;;14.27;;
2452;SDS011;1238;47.994;7.854;2022-08-19T10:58:58;23.42;;;15.07;;
2452;SDS011;1238;47.994;7.854;2022-08-19T11:01:32;21.15;;;14.05;;
2452;SDS011;1238;47.994;7.854;2022-08-19T11:04:06;22.98;;;14.90;;
2452;SDS011;1238;47.994;7.854;2022-08-19T11:06:42;19.08;;;13.75;;
2452;SDS011;1238;47.994;7.854;2022-08-19T11:09:20;21.42;;;14.85;;
2452;SDS011;1238;47.994;7.854;2022-08-19T11:12:05;21.40;;;14.07;;
2452;SDS011;1238;47.994;7.854;2022-08-19T11:14:38;18.27;;;13.40;;
2452;SDS011;1238;47.994;7.854;2022-08-19T11:17:11;19.23;;;12.98;;
2452;SDS011;1238;47.994;7.854;2022-08-19T11:19:45;18.30;;;14.05;;
2452;SDS011;1238;47.994;7.854;2022-08-19T11:22:19;18.50;;;12.57;;
2452;SDS011;1238;47.994;7.854;2022-08-19T11:24:52;20.98;;;13.00;;
2452;SDS011;1238;47.994;7.854;2022-08-19T11:27:24;17.55;;;13.45;;
2452;SDS011;1238;47.994;7.854;2022-08-19T11:29:56;22.50;;;14.10;;
2452;SDS011;1238;47.994;7.854;2022-08-19T11:32:29;24.00;;;14.57;;
2452;SDS011;1238;47.994;7.854;2022-08-19T11:35:01;20.35;;;14.10;;
2452;SDS011;1238;47.994;7.854;2022-08-19T11:37:34;21.45;;;14.45;;
2452;SDS011;1238;47.994;7.854;2022-08-19T11:40:09;21.05;;;13.68;;
2452;SDS011;1238;47.994;7.854;2022-08-19T11:42:43;23.02;;;15.32;;
2452;SDS011;1238;47.994;7.854;2022-08-19T11:45:28;21.17;;;15.38;;
2452;SDS011;1238;47.994;7.854;2022-08-19T11:48:02;25.88;;;16.60;;
2452;SDS011;1238;47.994;7.854;2022-08-19T11:50:35;26.52;;;16.92;;
2452;SDS011;1238;47.994;7.854;2022-08-19T11:53:07;26.83;;;17.75;;
2452;SDS011;1238;47.994;7.854;2022-08-19T11:55:41;25.50;;;16.95;;
2452;SDS011;1238;47.994;7.854;2022-08-19T11:58:15;24.95;;;16.63;;
2452;SDS011;1238;47.994;7.854;2022-08-19T12:00:49;25.05;;;17.13;;
2452;SDS011;1238;47.994;7.854;2022-08-19T12:03:22;25.08;;;17.00;;
2452;SDS011;1238;47.994;7.854;2022-08-19T12:05:54;26.33;;;16.08;;
2452;SDS011;1238;47.994;7.854;2022-08-19T12:08:27;24.45;;;15.82;;
2452;SDS011;1238;47.994;7.854;2022-08-19T12:10:59;25.30;;;16.42;;
2452;SDS011;1238;47.994;7.854;2022-08-19T12:13:32;25.45;;;16.73;;
2452;SDS011;1238;47.994;7.854;2022-08-19T12:16:09;32.35;;;20.67;;
2452;SDS011;1238;47.994;7.854;2022-08-19T12:18:43;24.58;;;16.42;;
2452;SDS011;1238;47.994;7.854;2022-08-19T12:21:19;19.50;;;13.52;;
2452;SDS011;1238;47.994;7.854;2022-08-19T12:23:53;19.30;;;14.10;;
2452;SDS011;1238;47.994;7.854;2022-08-19T12:26:27;19.92;;;13.60;;
2452;SDS011;1238;47.994;7.854;2022-08-19T12:29:01;18.42;;;13.00;;
2452;SDS011;1238;47.994;7.854;2022-08-19T12:31:33;16.95;;;13.27;;
2452;SDS011;1238;47.994;7.854;2022-08-19T12:34:05;17.65;;;12.50;;
2452;SDS011;1238;47.994;7.854;2022-08-19T12:36:39;15.73;;;11.88;;
2452;SDS011;1238;47.994;7.854;2022-08-19T12:39:11;21.50;;;14.98;;
2452;SDS011;1238;47.994;7.854;2022-08-19T12:41:44;17.98;;;12.63;;
2452;SDS011;1238;47.994;7.854;2022-08-19T12:44:25;18.55;;;12.13;;
2452;SDS011;1238;47.994;7.854;2022-08-19T12:47:00;16.20;;;12.93;;
2452;SDS011;1238;47.994;7.854;2022-08-19T12:49:36;14.82;;;11.50;;
2452;SDS011;1238;47.994;7.854;2022-08-19T12:52:26;17.08;;;11.85;;
2452;SDS011;1238;47.994;7.854;2022-08-19T12:54:59;14.45;;;11.23;;
2452;SDS011;1238;47.994;7.854;2022-08-19T12:57:31;15.82;;;11.52;;
2452;SDS011;1238;47.994;7.854;2022-08-19T13:00:08;15.18;;;11.32;;
2452;SDS011;1238;47.994;7.854;2022-08-19T13:02:44;18.20;;;13.13;;
2452;SDS011;1238;47.994;7.854;2022-08-19T13:05:22;19.73;;;14.00;;
2452;SDS011;1238;47.994;7.854;2022-08-19T13:07:56;15.48;;;12.00;;
2452;SDS011;1238;47.994;7.854;2022-08-19T13:10:32;17.55;;;12.38;;
2452;SDS011;1238;47.994;7.854;2022-08-19T13:13:08;15.52;;;12.27;;
2452;SDS011;1238;47.994;7.854;2022-08-19T13:15:43;17.33;;;12.07;;
2452;SDS011;1238;47.994;7.854;2022-08-19T13:18:16;15.20;;;12.25;;
2452;SDS011;1238;47.994;7.854;2022-08-19T13:20:49;14.85;;;11.88;;
2452;SDS011;1238;47.994;7.854;2022-08-19T13:23:23;14.02;;;11.90;;
2452;SDS011;1238;47.994;7.854;2022-08-19T13:25:57;17.52;;;12.13;;
2452;SDS011;1238;47.994;7.854;2022-08-19T13:28:30;17.30;;;11.85;;
2452;SDS011;1238;47.994;7.854;2022-08-19T13:31:24;15.60;;;11.57;;
2452;SDS011;1238;47.994;7.854;2022-08-19T13:34:17;18.02;;;12.05;;
2452;SDS011;1238;47.994;7.854;2022-08-19T13:36:52;16.58;;;12.80;;
2452;SDS011;1238;47.994;7.854;2022-08-19T13:39:27;16.08;;;11.48;;
2452;SDS011;1238;47.994;7.854;2022-08-19T13:42:00;13.65;;;10.85;;
2452;SDS011;1238;47.994;7.854;2022-08-19T13:44:33;13.88;;;11.05;;
2452;SDS011;1238;47.994;7.854;2022-08-19T13:47:06;14.20;;;10.70;;
2452;SDS011;1238;47.994;7.854;2022-08-19T13:49:38;13.93;;;10.75;;
2452;SDS011;1238;47.994;7.854;2022-08-19T13:52:11;14.02;;;10.38;;
2452;SDS011;1238;47.994;7.854;2022-08-19T13:54:43;13.63;;;10.25;;
2452;SDS011;1238;47.994;7.854;2022-08-19T13:57:15;13.75;;;10.07;;
2452;SDS011;1238;47.994;7.854;2022-08-19T13:59:48;16.60;;;12.60;;
2452;SDS011;1238;47.994;7.854;2022-08-19T14:02:20;15.68;;;11.30;;
2452;SDS011;1238;47.994;7.854;2022-08-19T14:04:52;13.73;;;11.10;;
2452;SDS011;1238;47.994;7.854;2022-08-19T14:07:24;14.57;;;10.23;;
2452;SDS011;1238;47.994;7.854;2022-08-19T14:09:57;12.15;;;9.75;;
2452;SDS011;1238;47.994;7.854;2022-08-19T14:12:29;10.40;;;8.60;;
2452;SDS011;1238;47.994;7.854;2022-08-19T14:15:04;11.27;;;8.20;;
2452;SDS011;1238;47.994;7.854;2022-08-19T14:17:38;9.05;;;8.00;;
2452;SDS011;1238;47.994;7.854;2022-08-19T14:20:12;11.07;;;8.82;;
2452;SDS011;1238;47.994;7.854;2022-08-19T14:22:49;10.40;;;8.93;;
2452;SDS011;1238;47.994;7.854;2022-08-19T14:25:23;9.10;;;7.78;;
2452;SDS011;1238;47.994;7.854;2022-08-19T14:27:57;10.63;;;8.38;;
2452;SDS011;1238;47.994;7.854;2022-08-19T14:30:31;9.75;;;8.27;;
2452;SDS011;1238;47.994;7.854;2022-08-19T14:33:05;10.27;;;8.60;;
2452;SDS011;1238;47.994;7.854;2022-08-19T14:35:38;10.32;;;8.75;;
2452;SDS011;1238;47.994;7.854;2022-08-19T14:38:16;13.88;;;9.80;;
2452;SDS011;1238;47.994;7.854;2022-08-19T14:41:21;12.50;;;9.45;;
2452;SDS011;1238;47.994;7.854;2022-08-19T14:43:54;10.55;;;9.15;;
2452;SDS011;1238;47.994;7.854;2022-08-19T14:46:27;15.30;;;10.98;;
2452;SDS011;1238;47.994;7.854;2022-08-19T14:49:00;12.45;;;10.00;;
2452;SDS011;1238;47.994;7.854;2022-08-19T14:51:40;14.70;;;10.30;;
2452;SDS011;1238;47.994;7.854;2022-08-19T14:54:12;14.82;;;10.23;;
2452;SDS011;1238;47.994;7.854;2022-08-19T14:56:46;12.82;;;10.20;;
2452;SDS011;1238;47.994;7.854;2022-08-19T14:59:18;12.05;;;10.23;;
2452;SDS011;1238;47.994;7.854;2022-08-19T15:01:50;13.85;;;10.48;;
2452;SDS011;1238;47.994;7.854;2022-08-19T15:04:23;14.43;;;10.43;;
2452;SDS011;1238;47.994;7.854;2022-08-19T15:06:55;14.52;;;10.55;;
2452;SDS011;1238;47.994;7.854;2022-08-19T15:09:27;13.05;;;9.90;;
2452;SDS011;1238;47.994;7.854;2022-08-19T15:14:35;12.80;;;10.00;;
2452;SDS011;1238;47.994;7.854;2022-08-19T15:17:09;12.55;;;9.48;;
2452;SDS011;1238;47.994;7.854;2022-08-19T15:19:41;12.18;;;8.70;;
2452;SDS011;1238;47.994;7.854;2022-08-19T15:22:14;12.07;;;9.40;;
2452;SDS011;1238;47.994;7.854;2022-08-19T15:24:46;11.88;;;9.73;;
2452;SDS011;1238;47.994;7.854;2022-08-19T15:29:51;11.57;;;9.15;;
2452;SDS011;1238;47.994;7.854;2022-08-19T15:32:32;11.65;;;9.23;;
2452;SDS011;1238;47.994;7.854;2022-08-19T15:35:04;12.57;;;9.68;;
2452;SDS011;1238;47.994;7.854;2022-08-19T15:37:38;11.15;;;9.05;;
2452;SDS011;1238;47.994;7.854;2022-08-19T15:40:11;11.38;;;8.70;;
2452;SDS011;1238;47.994;7.854;2022-08-19T15:42:43;15.50;;;9.95;;
2452;SDS011;1238;47.994;7.854;2022-08-19T15:45:17;10.65;;;8.52;;
2452;SDS011;1238;47.994;7.854;2022-08-19T15:47:50;12.52;;;9.45;;
2452;SDS011;1238;47.994;7.854;2022-08-19T15:50:22;11.80;;;8.80;;
2452;SDS011;1238;47.994;7.854;2022-08-19T15:52:56;11.20;;;8.85;;
2452;SDS011;1238;47.994;7.854;2022-08-19T15:55:40;11.05;;;9.00;;
2452;SDS011;1238;47.994;7.854;2022-08-19T15:58:16;11.55;;;8.63;;
2452;SDS011;1238;47.994;7.854;2022-08-19T16:01:07;11.13;;;8.50;;
2452;SDS011;1238;47.994;7.854;2022-08-19T16:03:58;11.15;;;8.75;;
2452;SDS011;1238;47.994;7.854;2022-08-19T16:06:51;11.45;;;8.73;;
2452;SDS011;1238;47.994;7.854;2022-08-19T16:09:26;11.02;;;8.93;;
2452;SDS011;1238;47.994;7.854;2022-08-19T16:12:01;9.88;;;8.10;;
2452;SDS011;1238;47.994;7.854;2022-08-19T16:14:36;12.55;;;8.50;;
2452;SDS011;1238;47.994;7.854;2022-08-19T16:17:09;11.95;;;8.85;;
2452;SDS011;1238;47.994;7.854;2022-08-19T16:19:43;11.68;;;9.00;;
2452;SDS011;1238;47.994;7.854;2022-08-19T16:22:20;12.15;;;9.15;;
2452;SDS011;1238;47.994;7.854;2022-08-19T16:25:00;11.30;;;8.80;;
2452;SDS011;1238;47.994;7.854;2022-08-19T16:27:33;10.25;;;8.25;;
2452;SDS011;1238;47.994;7.854;2022-08-19T16:30:07;11.23;;;8.95;;
2452;SDS011;1238;47.994;7.854;2022-08-19T16:32:43;11.80;;;8.18;;
2452;SDS011;1238;47.994;7.854;2022-08-19T16:35:15;10.52;;;7.70;;
2452;SDS011;1238;47.994;7.854;2022-08-19T16:37:47;15.05;;;8.27;;
2452;SDS011;1238;47.994;7.854;2022-08-19T16:40:20;10.30;;;8.70;;
2452;SDS011;1238;47.994;7.854;2022-08-19T16:42:52;10.00;;;8.13;;
2452;SDS011;1238;47.994;7.854;2022-08-19T16:47:57;9.88;;;7.70;;
2452;SDS011;1238;47.994;7.854;2022-08-19T16:53:21;10.68;;;7.82;;
2452;SDS011;1238;47.994;7.854;2022-08-19T16:56:02;11.05;;;7.93;;
2452;SDS011;1238;47.994;7.854;2022-08-19T16:58:34;10.00;;;7.43;;
2452;SDS011;1238;47.994;7.854;2022-08-19T17:01:07;8.60;;;7.40;;
2452;SDS011;1238;47.994;7.854;2022-08-19T17:03:42;10.10;;;7.68;;
2452;SDS011;1238;47.994;7.854;2022-08-19T17:06:20;8.82;;;7.20;;
2452;SDS011;1238;47.994;7.854;2022-08-19T17:11:31;9.10;;;7.28;;
2452;SDS011;1238;47.994;7.854;2022-08-19T17:14:04;8.93;;;7.60;;
2452;SDS011;1238;47.994;7.854;2022-08-19T17:16:36;11.00;;;8.10;;
2452;SDS011;1238;47.994;7.854;2022-08-19T17:19:08;10.02;;;7.45;;
2452;SDS011;1238;47.994;7.854;2022-08-19T17:24:13;9.77;;;7.20;;
2452;SDS011;1238;47.994;7.854;2022-08-19T17:26:45;8.80;;;7.50;;
2452;SDS011;1238;47.994;7.854;2022-08-19T17:31:50;10.68;;;7.25;;
2452;SDS011;1238;47.994;7.854;2022-08-19T17:34:22;8.80;;;7.40;;
2452;SDS011;1238;47.994;7.854;2022-08-19T17:36:54;9.38;;;7.40;;
2452;SDS011;1238;47.994;7.854;2022-08-19T17:39:29;10.02;;;7.65;;
2452;SDS011;1238;47.994;7.854;2022-08-19T17:42:09;10.38;;;8.07;;
2452;SDS011;1238;47.994;7.854;2022-08-19T17:44:41;9.05;;;7.70;;
2452;SDS011;1238;47.994;7.854;2022-08-19T17:47:21;10.57;;;7.10;;